sensor_id;sensor_type;location;lat;lon;timestamp;P1;durP1;ratioP1;P2;durP2;ratioP2
39750;SDS011;37579;51.074;17.004;2022-12-10T00:01:30;7.65;;;5.70;;
39750;SDS011;37579;51.074;17.004;2022-12-10T00:03:57;6.97;;;5.63;;
39750;SDS011;37579;51.074;17.004;2022-12-10T00:06:25;6.47;;;5.10;;
39750;SDS011;37579;51.074;17.004;2022-12-10T00:08:52;7.38;;;5.38;;
39750;SDS011;37579;51.074;17.004;2022-12-10T00:11:19;7.60;;;5.82;;
39750;SDS011;37579;51.074;17.004;2022-12-10T00:13:46;7.57;;;5.25;;
39750;SDS011;37579;51.074;17.004;2022-12-10T00:16:13;7.22;;;5.38;;
39750;SDS011;37579;51.074;17.004;2022-12-10T00:18:40;7.65;;;5.72;;
39750;SDS011;37579;51.074;17.004;2022-12-10T00:21:08;7.55;;;5.75;;
39750;SDS011;37579;51.074;17.004;2022-12-10T00:23:36;8.27;;;5.35;;
39750;SDS011;37579;51.074;17.004;2022-12-10T00:26:05;7.22;;;5.38;;
39750;SDS011;37579;51.074;17.004;2022-12-10T00:28:46;8.30;;;5.50;;
39750;SDS011;37579;51.074;17.004;2022-12-10T00:31:17;7.15;;;5.20;;
39750;SDS011;37579;51.074;17.004;2022-12-10T00:33:52;8.35;;;5.57;;
39750;SDS011;37579;51.074;17.004;2022-12-10T00:36:20;7.75;;;5.28;;
39750;SDS011;37579;51.074;17.004;2022-12-10T00:38:48;7.63;;;6.00;;
39750;SDS011;37579;51.074;17.004;2022-12-10T00:41:15;7.80;;;5.68;;
39750;SDS011;37579;51.074;17.004;2022-12-10T00:43:41;7.90;;;5.72;;
39750;SDS011;37579;51.074;17.004;2022-12-10T00:46:09;7.72;;;5.55;;
39750;SDS011;37579;51.074;17.004;2022-12-10T00:48:36;8.60;;;5.90;;
39750;SDS011;37579;51.074;17.004;2022-12-10T00:51:04;6.63;;;5.07;;
39750;SDS011;37579;51.074;17.004;2022-12-10T00:53:35;8.40;;;5.73;;
39750;SDS011;37579;51.074;17.004;2022-12-10T00:56:03;7.20;;;5.55;;
39750;SDS011;37579;51.074;17.004;2022-12-10T00:58:30;7.05;;;5.55;;
39750;SDS011;37579;51.074;17.004;2022-12-10T01:03:57;7.35;;;4.88;;
39750;SDS011;37579;51.074;17.004;2022-12-10T01:06:27;6.63;;;5.15;;
39750;SDS011;37579;51.074;17.004;2022-12-10T01:09:01;6.70;;;4.90;;
39750;SDS011;37579;51.074;17.004;2022-12-10T01:11:32;7.68;;;5.53;;
39750;SDS011;37579;51.074;17.004;2022-12-10T01:14:00;6.97;;;5.25;;
39750;SDS011;37579;51.074;17.004;2022-12-10T01:16:26;6.65;;;5.25;;
39750;SDS011;37579;51.074;17.004;2022-12-10T01:18:56;8.30;;;6.03;;
39750;SDS011;37579;51.074;17.004;2022-12-10T01:21:23;7.28;;;5.30;;
39750;SDS011;37579;51.074;17.004;2022-12-10T01:23:51;7.90;;;5.72;;
39750;SDS011;37579;51.074;17.004;2022-12-10T01:26:21;7.85;;;5.57;;
39750;SDS011;37579;51.074;17.004;2022-12-10T01:28:49;8.65;;;6.43;;
39750;SDS011;37579;51.074;17.004;2022-12-10T01:31:26;7.20;;;5.22;;
39750;SDS011;37579;51.074;17.004;2022-12-10T01:33:54;6.53;;;5.32;;
39750;SDS011;37579;51.074;17.004;2022-12-10T01:36:22;6.65;;;5.30;;
39750;SDS011;37579;51.074;17.004;2022-12-10T01:38:51;7.78;;;5.72;;
39750;SDS011;37579;51.074;17.004;2022-12-10T01:41:22;7.15;;;5.78;;
39750;SDS011;37579;51.074;17.004;2022-12-10T01:46:29;8.32;;;5.93;;
39750;SDS011;37579;51.074;17.004;2022-12-10T01:48:56;8.68;;;6.13;;
39750;SDS011;37579;51.074;17.004;2022-12-10T01:51:25;7.45;;;6.13;;
39750;SDS011;37579;51.074;17.004;2022-12-10T01:53:53;7.97;;;5.53;;
39750;SDS011;37579;51.074;17.004;2022-12-10T01:56:19;7.97;;;5.68;;
39750;SDS011;37579;51.074;17.004;2022-12-10T01:58:48;8.10;;;5.40;;
39750;SDS011;37579;51.074;17.004;2022-12-10T02:04:09;7.68;;;5.40;;
39750;SDS011;37579;51.074;17.004;2022-12-10T02:09:58;7.05;;;5.35;;
39750;SDS011;37579;51.074;17.004;2022-12-10T02:12:47;8.23;;;5.97;;
39750;SDS011;37579;51.074;17.004;2022-12-10T02:15:33;7.93;;;5.80;;
39750;SDS011;37579;51.074;17.004;2022-12-10T02:18:12;8.43;;;6.05;;
39750;SDS011;37579;51.074;17.004;2022-12-10T02:20:49;7.50;;;5.72;;
39750;SDS011;37579;51.074;17.004;2022-12-10T02:23:22;8.60;;;5.93;;
39750;SDS011;37579;51.074;17.004;2022-12-10T02:26:02;8.07;;;5.90;;
39750;SDS011;37579;51.074;17.004;2022-12-10T02:29:31;7.65;;;6.10;;
39750;SDS011;37579;51.074;17.004;2022-12-10T02:31:42;7.30;;;6.40;;
39750;SDS011;37579;51.074;17.004;2022-12-10T02:34:12;8.30;;;6.10;;
39750;SDS011;37579;51.074;17.004;2022-12-10T02:36:41;9.13;;;6.13;;
39750;SDS011;37579;51.074;17.004;2022-12-10T02:39:13;8.00;;;6.03;;
39750;SDS011;37579;51.074;17.004;2022-12-10T02:41:50;7.18;;;5.75;;
39750;SDS011;37579;51.074;17.004;2022-12-10T02:44:18;8.93;;;6.20;;
39750;SDS011;37579;51.074;17.004;2022-12-10T02:46:47;7.85;;;5.70;;
39750;SDS011;37579;51.074;17.004;2022-12-10T02:49:17;7.90;;;6.00;;
39750;SDS011;37579;51.074;17.004;2022-12-10T02:51:43;7.95;;;5.95;;
39750;SDS011;37579;51.074;17.004;2022-12-10T02:57:00;9.38;;;5.82;;
39750;SDS011;37579;51.074;17.004;2022-12-10T03:06:45;8.32;;;6.07;;
39750;SDS011;37579;51.074;17.004;2022-12-10T03:11:15;7.50;;;5.57;;
39750;SDS011;37579;51.074;17.004;2022-12-10T03:16:20;8.07;;;5.88;;
39750;SDS011;37579;51.074;17.004;2022-12-10T03:18:49;9.65;;;6.20;;
39750;SDS011;37579;51.074;17.004;2022-12-10T03:21:17;9.07;;;6.32;;
39750;SDS011;37579;51.074;17.004;2022-12-10T03:23:45;9.27;;;6.53;;
39750;SDS011;37579;51.074;17.004;2022-12-10T03:26:13;7.97;;;5.75;;
39750;SDS011;37579;51.074;17.004;2022-12-10T03:28:42;7.22;;;5.72;;
39750;SDS011;37579;51.074;17.004;2022-12-10T03:31:13;7.33;;;5.50;;
39750;SDS011;37579;51.074;17.004;2022-12-10T03:33:40;8.65;;;6.35;;
39750;SDS011;37579;51.074;17.004;2022-12-10T03:36:07;8.15;;;5.68;;
39750;SDS011;37579;51.074;17.004;2022-12-10T03:38:33;7.68;;;5.93;;
39750;SDS011;37579;51.074;17.004;2022-12-10T03:41:01;9.40;;;6.50;;
39750;SDS011;37579;51.074;17.004;2022-12-10T03:43:27;8.52;;;6.20;;
39750;SDS011;37579;51.074;17.004;2022-12-10T03:45:53;10.70;;;5.97;;
39750;SDS011;37579;51.074;17.004;2022-12-10T03:48:19;8.77;;;6.35;;
39750;SDS011;37579;51.074;17.004;2022-12-10T03:50:44;7.55;;;5.82;;
39750;SDS011;37579;51.074;17.004;2022-12-10T03:53:10;8.27;;;6.35;;
39750;SDS011;37579;51.074;17.004;2022-12-10T03:55:36;8.68;;;6.43;;
39750;SDS011;37579;51.074;17.004;2022-12-10T03:58:03;8.20;;;6.20;;
39750;SDS011;37579;51.074;17.004;2022-12-10T04:00:28;7.68;;;5.85;;
39750;SDS011;37579;51.074;17.004;2022-12-10T04:02:54;7.28;;;5.97;;
39750;SDS011;37579;51.074;17.004;2022-12-10T04:05:20;7.88;;;6.22;;
39750;SDS011;37579;51.074;17.004;2022-12-10T04:07:46;8.77;;;6.43;;
39750;SDS011;37579;51.074;17.004;2022-12-10T04:10:12;8.20;;;6.10;;
39750;SDS011;37579;51.074;17.004;2022-12-10T04:12:37;7.85;;;6.03;;
39750;SDS011;37579;51.074;17.004;2022-12-10T04:15:04;9.15;;;6.25;;
39750;SDS011;37579;51.074;17.004;2022-12-10T04:17:48;9.68;;;6.43;;
39750;SDS011;37579;51.074;17.004;2022-12-10T04:20:14;8.65;;;6.22;;
39750;SDS011;37579;51.074;17.004;2022-12-10T04:22:58;8.57;;;6.10;;
39750;SDS011;37579;51.074;17.004;2022-12-10T04:25:42;8.02;;;5.93;;
39750;SDS011;37579;51.074;17.004;2022-12-10T04:28:28;8.27;;;6.13;;
39750;SDS011;37579;51.074;17.004;2022-12-10T04:30:54;9.75;;;6.65;;
39750;SDS011;37579;51.074;17.004;2022-12-10T04:33:19;7.93;;;6.15;;
39750;SDS011;37579;51.074;17.004;2022-12-10T04:35:45;8.68;;;6.30;;
39750;SDS011;37579;51.074;17.004;2022-12-10T04:38:11;8.57;;;5.72;;
39750;SDS011;37579;51.074;17.004;2022-12-10T04:40:37;8.15;;;6.70;;
39750;SDS011;37579;51.074;17.004;2022-12-10T04:43:03;8.43;;;6.40;;
39750;SDS011;37579;51.074;17.004;2022-12-10T04:45:28;8.40;;;6.47;;
39750;SDS011;37579;51.074;17.004;2022-12-10T04:47:54;8.75;;;6.35;;
39750;SDS011;37579;51.074;17.004;2022-12-10T04:50:20;8.50;;;6.25;;
39750;SDS011;37579;51.074;17.004;2022-12-10T04:52:46;9.05;;;6.93;;
39750;SDS011;37579;51.074;17.004;2022-12-10T04:55:11;8.60;;;6.40;;
39750;SDS011;37579;51.074;17.004;2022-12-10T04:57:37;8.30;;;5.97;;
39750;SDS011;37579;51.074;17.004;2022-12-10T05:00:03;8.75;;;6.07;;
39750;SDS011;37579;51.074;17.004;2022-12-10T05:02:29;8.18;;;6.57;;
39750;SDS011;37579;51.074;17.004;2022-12-10T05:04:55;7.65;;;5.72;;
39750;SDS011;37579;51.074;17.004;2022-12-10T05:07:21;8.18;;;6.60;;
39750;SDS011;37579;51.074;17.004;2022-12-10T05:09:47;9.68;;;6.38;;
39750;SDS011;37579;51.074;17.004;2022-12-10T05:12:12;9.02;;;6.40;;
39750;SDS011;37579;51.074;17.004;2022-12-10T05:14:38;8.93;;;6.20;;
39750;SDS011;37579;51.074;17.004;2022-12-10T05:17:04;8.48;;;6.22;;
39750;SDS011;37579;51.074;17.004;2022-12-10T05:19:30;8.13;;;6.30;;
39750;SDS011;37579;51.074;17.004;2022-12-10T05:21:56;8.85;;;6.03;;
39750;SDS011;37579;51.074;17.004;2022-12-10T05:24:40;8.10;;;6.47;;
39750;SDS011;37579;51.074;17.004;2022-12-10T05:27:06;8.23;;;6.30;;
39750;SDS011;37579;51.074;17.004;2022-12-10T05:29:32;7.90;;;6.68;;
39750;SDS011;37579;51.074;17.004;2022-12-10T05:31:59;6.57;;;5.60;;
39750;SDS011;37579;51.074;17.004;2022-12-10T05:34:24;8.85;;;6.35;;
39750;SDS011;37579;51.074;17.004;2022-12-10T05:36:52;8.75;;;6.72;;
39750;SDS011;37579;51.074;17.004;2022-12-10T05:39:18;9.35;;;7.10;;
39750;SDS011;37579;51.074;17.004;2022-12-10T05:41:44;8.20;;;5.90;;
39750;SDS011;37579;51.074;17.004;2022-12-10T05:44:10;8.48;;;5.97;;
39750;SDS011;37579;51.074;17.004;2022-12-10T05:46:36;9.98;;;6.10;;
39750;SDS011;37579;51.074;17.004;2022-12-10T05:49:03;7.43;;;5.70;;
39750;SDS011;37579;51.074;17.004;2022-12-10T05:51:31;8.05;;;6.30;;
39750;SDS011;37579;51.074;17.004;2022-12-10T05:53:59;8.65;;;6.20;;
39750;SDS011;37579;51.074;17.004;2022-12-10T05:56:26;8.45;;;5.78;;
39750;SDS011;37579;51.074;17.004;2022-12-10T05:58:53;8.73;;;6.38;;
39750;SDS011;37579;51.074;17.004;2022-12-10T06:01:23;8.00;;;6.28;;
39750;SDS011;37579;51.074;17.004;2022-12-10T06:03:50;9.02;;;5.95;;
39750;SDS011;37579;51.074;17.004;2022-12-10T06:06:28;7.47;;;6.13;;
39750;SDS011;37579;51.074;17.004;2022-12-10T06:08:56;7.43;;;5.93;;
39750;SDS011;37579;51.074;17.004;2022-12-10T06:11:22;8.30;;;6.55;;
39750;SDS011;37579;51.074;17.004;2022-12-10T06:13:49;6.78;;;5.45;;
39750;SDS011;37579;51.074;17.004;2022-12-10T06:16:15;7.70;;;6.07;;
39750;SDS011;37579;51.074;17.004;2022-12-10T06:18:41;6.72;;;5.65;;
39750;SDS011;37579;51.074;17.004;2022-12-10T06:21:08;9.35;;;6.22;;
39750;SDS011;37579;51.074;17.004;2022-12-10T06:23:36;7.93;;;6.00;;
39750;SDS011;37579;51.074;17.004;2022-12-10T06:28:32;7.72;;;6.05;;
39750;SDS011;37579;51.074;17.004;2022-12-10T06:30:58;8.38;;;6.18;;
39750;SDS011;37579;51.074;17.004;2022-12-10T06:33:25;7.53;;;5.80;;
39750;SDS011;37579;51.074;17.004;2022-12-10T06:35:51;8.77;;;6.28;;
39750;SDS011;37579;51.074;17.004;2022-12-10T06:38:17;7.68;;;6.25;;
39750;SDS011;37579;51.074;17.004;2022-12-10T06:40:43;7.65;;;5.63;;
39750;SDS011;37579;51.074;17.004;2022-12-10T06:43:08;7.35;;;5.90;;
39750;SDS011;37579;51.074;17.004;2022-12-10T06:45:38;7.43;;;5.50;;
39750;SDS011;37579;51.074;17.004;2022-12-10T06:48:07;7.73;;;6.03;;
39750;SDS011;37579;51.074;17.004;2022-12-10T06:50:33;7.95;;;5.75;;
39750;SDS011;37579;51.074;17.004;2022-12-10T06:52:59;7.03;;;5.50;;
39750;SDS011;37579;51.074;17.004;2022-12-10T06:55:25;7.80;;;5.93;;
39750;SDS011;37579;51.074;17.004;2022-12-10T06:57:51;6.38;;;5.03;;
39750;SDS011;37579;51.074;17.004;2022-12-10T07:00:17;8.05;;;6.18;;
39750;SDS011;37579;51.074;17.004;2022-12-10T07:02:43;6.72;;;5.70;;
39750;SDS011;37579;51.074;17.004;2022-12-10T07:05:09;8.05;;;5.70;;
39750;SDS011;37579;51.074;17.004;2022-12-10T07:07:35;7.85;;;6.00;;
39750;SDS011;37579;51.074;17.004;2022-12-10T07:10:02;6.90;;;5.22;;
39750;SDS011;37579;51.074;17.004;2022-12-10T07:12:28;6.97;;;5.80;;
39750;SDS011;37579;51.074;17.004;2022-12-10T07:14:54;6.90;;;5.38;;
39750;SDS011;37579;51.074;17.004;2022-12-10T07:17:20;8.48;;;6.10;;
39750;SDS011;37579;51.074;17.004;2022-12-10T07:19:46;6.72;;;5.18;;
39750;SDS011;37579;51.074;17.004;2022-12-10T07:22:12;6.55;;;5.40;;
39750;SDS011;37579;51.074;17.004;2022-12-10T07:24:37;7.30;;;5.35;;
39750;SDS011;37579;51.074;17.004;2022-12-10T07:27:07;6.53;;;5.43;;
39750;SDS011;37579;51.074;17.004;2022-12-10T07:29:33;11.52;;;6.75;;
39750;SDS011;37579;51.074;17.004;2022-12-10T07:32:00;7.15;;;5.63;;
39750;SDS011;37579;51.074;17.004;2022-12-10T07:34:26;7.63;;;5.85;;
39750;SDS011;37579;51.074;17.004;2022-12-10T07:36:51;6.60;;;5.40;;
39750;SDS011;37579;51.074;17.004;2022-12-10T07:39:17;7.40;;;5.65;;
39750;SDS011;37579;51.074;17.004;2022-12-10T07:41:44;6.82;;;5.63;;
39750;SDS011;37579;51.074;17.004;2022-12-10T07:44:15;7.82;;;6.18;;
39750;SDS011;37579;51.074;17.004;2022-12-10T07:46:41;8.05;;;6.05;;
39750;SDS011;37579;51.074;17.004;2022-12-10T07:49:07;7.28;;;5.35;;
39750;SDS011;37579;51.074;17.004;2022-12-10T07:51:33;6.07;;;5.15;;
39750;SDS011;37579;51.074;17.004;2022-12-10T07:53:59;7.32;;;5.80;;
39750;SDS011;37579;51.074;17.004;2022-12-10T07:56:25;6.63;;;5.60;;
39750;SDS011;37579;51.074;17.004;2022-12-10T07:58:51;7.43;;;5.70;;
39750;SDS011;37579;51.074;17.004;2022-12-10T08:01:19;7.65;;;5.55;;
39750;SDS011;37579;51.074;17.004;2022-12-10T08:03:47;6.82;;;5.30;;
39750;SDS011;37579;51.074;17.004;2022-12-10T08:06:15;7.00;;;5.28;;
39750;SDS011;37579;51.074;17.004;2022-12-10T08:08:42;6.57;;;5.30;;
39750;SDS011;37579;51.074;17.004;2022-12-10T08:11:09;8.30;;;5.85;;
39750;SDS011;37579;51.074;17.004;2022-12-10T08:13:37;6.78;;;5.20;;
39750;SDS011;37579;51.074;17.004;2022-12-10T08:16:04;6.88;;;5.70;;
39750;SDS011;37579;51.074;17.004;2022-12-10T08:18:32;7.53;;;5.35;;
39750;SDS011;37579;51.074;17.004;2022-12-10T08:21:03;6.40;;;5.00;;
39750;SDS011;37579;51.074;17.004;2022-12-10T08:23:33;7.10;;;5.53;;
39750;SDS011;37579;51.074;17.004;2022-12-10T08:26:02;6.93;;;5.57;;
39750;SDS011;37579;51.074;17.004;2022-12-10T08:28:33;6.20;;;5.10;;
39750;SDS011;37579;51.074;17.004;2022-12-10T08:30:59;6.13;;;5.25;;
39750;SDS011;37579;51.074;17.004;2022-12-10T08:33:26;6.43;;;5.03;;
39750;SDS011;37579;51.074;17.004;2022-12-10T08:35:51;6.70;;;5.40;;
39750;SDS011;37579;51.074;17.004;2022-12-10T08:38:17;10.00;;;6.00;;
39750;SDS011;37579;51.074;17.004;2022-12-10T08:40:43;9.95;;;5.97;;
39750;SDS011;37579;51.074;17.004;2022-12-10T08:43:09;7.78;;;5.10;;
39750;SDS011;37579;51.074;17.004;2022-12-10T08:45:35;8.05;;;5.20;;
39750;SDS011;37579;51.074;17.004;2022-12-10T08:48:01;7.00;;;5.38;;
39750;SDS011;37579;51.074;17.004;2022-12-10T08:50:27;7.07;;;5.70;;
39750;SDS011;37579;51.074;17.004;2022-12-10T08:52:53;7.25;;;5.03;;
39750;SDS011;37579;51.074;17.004;2022-12-10T08:55:19;6.93;;;5.03;;
39750;SDS011;37579;51.074;17.004;2022-12-10T08:57:45;8.20;;;5.10;;
39750;SDS011;37579;51.074;17.004;2022-12-10T09:00:11;10.82;;;5.75;;
39750;SDS011;37579;51.074;17.004;2022-12-10T09:02:38;11.43;;;5.65;;
39750;SDS011;37579;51.074;17.004;2022-12-10T09:05:04;11.23;;;5.32;;
39750;SDS011;37579;51.074;17.004;2022-12-10T09:07:31;8.35;;;5.38;;
39750;SDS011;37579;51.074;17.004;2022-12-10T09:09:57;9.32;;;5.15;;
39750;SDS011;37579;51.074;17.004;2022-12-10T09:12:23;10.20;;;5.45;;
39750;SDS011;37579;51.074;17.004;2022-12-10T09:14:49;9.32;;;4.95;;
39750;SDS011;37579;51.074;17.004;2022-12-10T09:17:15;8.40;;;5.40;;
39750;SDS011;37579;51.074;17.004;2022-12-10T09:19:40;18.50;;;6.22;;
39750;SDS011;37579;51.074;17.004;2022-12-10T09:22:06;8.02;;;4.55;;
39750;SDS011;37579;51.074;17.004;2022-12-10T09:24:32;11.43;;;6.22;;
39750;SDS011;37579;51.074;17.004;2022-12-10T09:26:58;6.53;;;5.00;;
39750;SDS011;37579;51.074;17.004;2022-12-10T09:29:26;7.65;;;5.18;;
39750;SDS011;37579;51.074;17.004;2022-12-10T09:31:51;7.22;;;5.03;;
39750;SDS011;37579;51.074;17.004;2022-12-10T09:34:17;6.65;;;4.97;;
39750;SDS011;37579;51.074;17.004;2022-12-10T09:36:43;8.60;;;5.38;;
39750;SDS011;37579;51.074;17.004;2022-12-10T09:39:10;8.80;;;5.10;;
39750;SDS011;37579;51.074;17.004;2022-12-10T09:44:53;9.05;;;5.25;;
39750;SDS011;37579;51.074;17.004;2022-12-10T09:47:30;9.87;;;6.50;;
39750;SDS011;37579;51.074;17.004;2022-12-10T09:52:39;11.38;;;6.25;;
39750;SDS011;37579;51.074;17.004;2022-12-10T09:55:19;10.57;;;6.20;;
39750;SDS011;37579;51.074;17.004;2022-12-10T09:57:50;11.38;;;6.22;;
39750;SDS011;37579;51.074;17.004;2022-12-10T10:02:55;10.35;;;5.55;;
39750;SDS011;37579;51.074;17.004;2022-12-10T10:05:27;9.70;;;6.03;;
39750;SDS011;37579;51.074;17.004;2022-12-10T10:07:59;10.05;;;5.93;;
39750;SDS011;37579;51.074;17.004;2022-12-10T10:10:28;7.18;;;5.80;;
39750;SDS011;37579;51.074;17.004;2022-12-10T10:15:35;9.75;;;5.72;;
39750;SDS011;37579;51.074;17.004;2022-12-10T10:20:39;6.88;;;5.28;;
39750;SDS011;37579;51.074;17.004;2022-12-10T10:23:06;10.05;;;5.50;;
39750;SDS011;37579;51.074;17.004;2022-12-10T10:25:33;7.85;;;5.50;;
39750;SDS011;37579;51.074;17.004;2022-12-10T10:27:59;7.45;;;5.43;;
39750;SDS011;37579;51.074;17.004;2022-12-10T10:30:25;7.82;;;4.97;;
39750;SDS011;37579;51.074;17.004;2022-12-10T10:32:55;8.20;;;5.32;;
39750;SDS011;37579;51.074;17.004;2022-12-10T10:35:32;8.85;;;5.13;;
39750;SDS011;37579;51.074;17.004;2022-12-10T10:38:08;6.95;;;5.00;;
39750;SDS011;37579;51.074;17.004;2022-12-10T10:40:43;8.95;;;5.13;;
39750;SDS011;37579;51.074;17.004;2022-12-10T10:43:18;11.05;;;5.30;;
39750;SDS011;37579;51.074;17.004;2022-12-10T10:48:25;7.60;;;5.07;;
39750;SDS011;37579;51.074;17.004;2022-12-10T10:50:54;6.60;;;4.60;;
39750;SDS011;37579;51.074;17.004;2022-12-10T10:53:39;8.98;;;4.63;;
39750;SDS011;37579;51.074;17.004;2022-12-10T10:56:10;11.07;;;4.85;;
39750;SDS011;37579;51.074;17.004;2022-12-10T11:01:19;7.55;;;4.70;;
39750;SDS011;37579;51.074;17.004;2022-12-10T11:03:50;10.65;;;4.70;;
39750;SDS011;37579;51.074;17.004;2022-12-10T11:06:20;9.50;;;4.20;;
39750;SDS011;37579;51.074;17.004;2022-12-10T11:08:47;9.07;;;4.07;;
39750;SDS011;37579;51.074;17.004;2022-12-10T11:11:18;8.30;;;4.07;;
39750;SDS011;37579;51.074;17.004;2022-12-10T11:13:47;7.00;;;4.40;;
39750;SDS011;37579;51.074;17.004;2022-12-10T11:18:43;9.40;;;4.50;;
39750;SDS011;37579;51.074;17.004;2022-12-10T11:21:27;9.15;;;4.55;;
39750;SDS011;37579;51.074;17.004;2022-12-10T11:23:55;9.50;;;4.35;;
39750;SDS011;37579;51.074;17.004;2022-12-10T11:40:30;8.63;;;4.30;;
39750;SDS011;37579;51.074;17.004;2022-12-10T11:50:53;9.57;;;4.25;;
39750;SDS011;37579;51.074;17.004;2022-12-10T11:56:30;8.00;;;4.10;;
39750;SDS011;37579;51.074;17.004;2022-12-10T12:04:25;9.25;;;4.10;;
39750;SDS011;37579;51.074;17.004;2022-12-10T12:12:41;9.95;;;4.07;;
39750;SDS011;37579;51.074;17.004;2022-12-10T12:18:18;5.90;;;4.10;;
39750;SDS011;37579;51.074;17.004;2022-12-10T12:26:32;6.53;;;4.57;;
39750;SDS011;37579;51.074;17.004;2022-12-10T12:37:16;7.28;;;4.45;;
39750;SDS011;37579;51.074;17.004;2022-12-10T12:39:45;8.63;;;4.53;;
39750;SDS011;37579;51.074;17.004;2022-12-10T12:42:36;5.97;;;4.65;;
39750;SDS011;37579;51.074;17.004;2022-12-10T12:45:30;10.18;;;4.95;;
39750;SDS011;37579;51.074;17.004;2022-12-10T12:50:59;10.52;;;4.93;;
39750;SDS011;37579;51.074;17.004;2022-12-10T12:53:28;7.95;;;5.00;;
39750;SDS011;37579;51.074;17.004;2022-12-10T13:01:33;14.25;;;7.30;;
39750;SDS011;37579;51.074;17.004;2022-12-10T13:04:05;10.90;;;6.70;;
39750;SDS011;37579;51.074;17.004;2022-12-10T13:06:36;11.93;;;6.55;;
39750;SDS011;37579;51.074;17.004;2022-12-10T13:11:38;17.40;;;8.20;;
39750;SDS011;37579;51.074;17.004;2022-12-10T13:27:17;64.10;;;19.38;;
39750;SDS011;37579;51.074;17.004;2022-12-10T13:32:51;61.53;;;20.67;;
39750;SDS011;37579;51.074;17.004;2022-12-10T13:35:24;53.88;;;19.17;;
39750;SDS011;37579;51.074;17.004;2022-12-10T13:38:02;48.40;;;17.52;;
39750;SDS011;37579;51.074;17.004;2022-12-10T13:46:23;42.33;;;18.23;;
39750;SDS011;37579;51.074;17.004;2022-12-10T13:48:56;43.95;;;16.77;;
39750;SDS011;37579;51.074;17.004;2022-12-10T13:51:39;50.90;;;16.33;;
39750;SDS011;37579;51.074;17.004;2022-12-10T13:57:30;44.00;;;15.82;;
39750;SDS011;37579;51.074;17.004;2022-12-10T14:00:21;33.40;;;15.40;;
39750;SDS011;37579;51.074;17.004;2022-12-10T14:08:34;42.47;;;15.95;;
39750;SDS011;37579;51.074;17.004;2022-12-10T14:11:04;31.38;;;14.98;;
39750;SDS011;37579;51.074;17.004;2022-12-10T14:13:39;35.25;;;15.00;;
39750;SDS011;37579;51.074;17.004;2022-12-10T14:16:10;33.08;;;13.77;;
39750;SDS011;37579;51.074;17.004;2022-12-10T14:18:38;32.75;;;14.30;;
39750;SDS011;37579;51.074;17.004;2022-12-10T14:21:08;35.03;;;13.90;;
39750;SDS011;37579;51.074;17.004;2022-12-10T14:23:37;27.35;;;13.45;;
39750;SDS011;37579;51.074;17.004;2022-12-10T14:28:39;32.08;;;13.48;;
39750;SDS011;37579;51.074;17.004;2022-12-10T14:31:08;24.92;;;12.10;;
39750;SDS011;37579;51.074;17.004;2022-12-10T14:36:20;30.20;;;13.38;;
39750;SDS011;37579;51.074;17.004;2022-12-10T14:38:58;25.52;;;12.65;;
39750;SDS011;37579;51.074;17.004;2022-12-10T14:41:24;33.13;;;12.65;;
39750;SDS011;37579;51.074;17.004;2022-12-10T14:43:53;41.97;;;14.73;;
39750;SDS011;37579;51.074;17.004;2022-12-10T14:46:21;42.70;;;14.60;;
39750;SDS011;37579;51.074;17.004;2022-12-10T14:48:50;40.92;;;15.30;;
39750;SDS011;37579;51.074;17.004;2022-12-10T14:51:30;46.47;;;16.10;;
39750;SDS011;37579;51.074;17.004;2022-12-10T14:53:58;36.42;;;14.88;;
39750;SDS011;37579;51.074;17.004;2022-12-10T15:01:34;44.88;;;16.52;;
39750;SDS011;37579;51.074;17.004;2022-12-10T15:04:06;39.00;;;14.95;;
39750;SDS011;37579;51.074;17.004;2022-12-10T15:06:39;40.63;;;17.17;;
39750;SDS011;37579;51.074;17.004;2022-12-10T15:09:05;62.03;;;26.80;;
39750;SDS011;37579;51.074;17.004;2022-12-10T15:11:43;67.43;;;28.63;;
39750;SDS011;37579;51.074;17.004;2022-12-10T15:14:16;75.88;;;31.23;;
39750;SDS011;37579;51.074;17.004;2022-12-10T15:16:45;79.20;;;33.95;;
39750;SDS011;37579;51.074;17.004;2022-12-10T15:19:23;83.28;;;37.63;;
39750;SDS011;37579;51.074;17.004;2022-12-10T15:21:58;93.80;;;41.17;;
39750;SDS011;37579;51.074;17.004;2022-12-10T15:24:46;105.30;;;44.20;;
39750;SDS011;37579;51.074;17.004;2022-12-10T15:27:15;100.28;;;47.95;;
39750;SDS011;37579;51.074;17.004;2022-12-10T15:29:42;112.45;;;50.10;;
39750;SDS011;37579;51.074;17.004;2022-12-10T15:37:31;116.95;;;54.28;;
39750;SDS011;37579;51.074;17.004;2022-12-10T15:40:06;122.47;;;56.30;;
39750;SDS011;37579;51.074;17.004;2022-12-10T15:42:47;123.80;;;58.10;;
39750;SDS011;37579;51.074;17.004;2022-12-10T15:45:26;119.93;;;56.45;;
39750;SDS011;37579;51.074;17.004;2022-12-10T15:48:09;114.80;;;55.13;;
39750;SDS011;37579;51.074;17.004;2022-12-10T15:50:37;123.18;;;56.40;;
39750;SDS011;37579;51.074;17.004;2022-12-10T15:53:07;110.40;;;55.05;;
39750;SDS011;37579;51.074;17.004;2022-12-10T15:55:37;115.45;;;54.80;;
39750;SDS011;37579;51.074;17.004;2022-12-10T15:58:07;109.43;;;54.38;;
39750;SDS011;37579;51.074;17.004;2022-12-10T16:00:38;111.60;;;53.80;;
39750;SDS011;37579;51.074;17.004;2022-12-10T16:03:12;110.32;;;53.05;;
39750;SDS011;37579;51.074;17.004;2022-12-10T16:05:40;120.28;;;54.38;;
39750;SDS011;37579;51.074;17.004;2022-12-10T16:10:43;104.25;;;48.95;;
39750;SDS011;37579;51.074;17.004;2022-12-10T16:13:13;89.30;;;47.30;;
39750;SDS011;37579;51.074;17.004;2022-12-10T16:15:46;97.43;;;47.15;;
39750;SDS011;37579;51.074;17.004;2022-12-10T16:20:43;92.70;;;44.92;;
39750;SDS011;37579;51.074;17.004;2022-12-10T16:23:09;93.15;;;44.53;;
39750;SDS011;37579;51.074;17.004;2022-12-10T16:25:35;86.45;;;44.03;;
39750;SDS011;37579;51.074;17.004;2022-12-10T16:28:03;83.68;;;41.70;;
39750;SDS011;37579;51.074;17.004;2022-12-10T16:30:36;90.03;;;43.90;;
39750;SDS011;37579;51.074;17.004;2022-12-10T16:33:06;79.85;;;41.63;;
39750;SDS011;37579;51.074;17.004;2022-12-10T16:35:32;87.35;;;42.13;;
39750;SDS011;37579;51.074;17.004;2022-12-10T16:37:58;82.93;;;40.78;;
39750;SDS011;37579;51.074;17.004;2022-12-10T16:40:26;72.65;;;38.53;;
39750;SDS011;37579;51.074;17.004;2022-12-10T16:42:53;73.15;;;38.08;;
39750;SDS011;37579;51.074;17.004;2022-12-10T16:45:27;70.80;;;39.53;;
39750;SDS011;37579;51.074;17.004;2022-12-10T16:48:03;67.95;;;37.30;;
39750;SDS011;37579;51.074;17.004;2022-12-10T16:50:29;72.50;;;37.30;;
39750;SDS011;37579;51.074;17.004;2022-12-10T16:52:56;69.28;;;35.78;;
39750;SDS011;37579;51.074;17.004;2022-12-10T16:55:23;71.70;;;37.38;;
39750;SDS011;37579;51.074;17.004;2022-12-10T16:57:50;65.68;;;35.72;;
39750;SDS011;37579;51.074;17.004;2022-12-10T17:00:18;68.22;;;35.75;;
39750;SDS011;37579;51.074;17.004;2022-12-10T17:02:46;68.85;;;34.20;;
39750;SDS011;37579;51.074;17.004;2022-12-10T17:05:16;61.30;;;31.95;;
39750;SDS011;37579;51.074;17.004;2022-12-10T17:10:12;63.53;;;32.35;;
39750;SDS011;37579;51.074;17.004;2022-12-10T17:12:38;59.95;;;30.58;;
39750;SDS011;37579;51.074;17.004;2022-12-10T17:15:08;56.65;;;31.67;;
39750;SDS011;37579;51.074;17.004;2022-12-10T17:17:35;59.20;;;31.23;;
39750;SDS011;37579;51.074;17.004;2022-12-10T17:20:01;53.92;;;30.88;;
39750;SDS011;37579;51.074;17.004;2022-12-10T17:22:31;54.50;;;30.17;;
39750;SDS011;37579;51.074;17.004;2022-12-10T17:24:56;53.28;;;29.40;;
39750;SDS011;37579;51.074;17.004;2022-12-10T17:27:22;52.83;;;28.85;;